sensor_id;sensor_type;location;lat;lon;timestamp;temperature;humidity
31967;DHT22;18496;52.042;6.812;2023-03-01T00:00:22;4.60;84.40
31967;DHT22;18496;52.042;6.812;2023-03-01T00:02:26;4.50;84.50
31967;DHT22;18496;52.042;6.812;2023-03-01T00:04:30;4.50;84.70
31967;DHT22;18496;52.042;6.812;2023-03-01T00:06:34;4.50;84.60
31967;DHT22;18496;52.042;6.812;2023-03-01T00:08:37;4.50;84.60
31967;DHT22;18496;52.042;6.812;2023-03-01T00:10:41;4.50;84.80
31967;DHT22;18496;52.042;6.812;2023-03-01T00:12:44;4.50;84.90
31967;DHT22;18496;52.042;6.812;2023-03-01T00:14:48;4.40;84.90
31967;DHT22;18496;52.042;6.812;2023-03-01T00:16:52;4.40;85.20
31967;DHT22;18496;52.042;6.812;2023-03-01T00:18:56;4.40;85.40
31967;DHT22;18496;52.042;6.812;2023-03-01T00:20:59;4.40;85.30
31967;DHT22;18496;52.042;6.812;2023-03-01T00:23:03;4.30;85.40
31967;DHT22;18496;52.042;6.812;2023-03-01T00:25:06;4.30;85.50
31967;DHT22;18496;52.042;6.812;2023-03-01T00:27:10;4.30;85.70
31967;DHT22;18496;52.042;6.812;2023-03-01T00:29:14;4.30;85.80
31967;DHT22;18496;52.042;6.812;2023-03-01T00:31:19;4.20;86.00
31967;DHT22;18496;52.042;6.812;2023-03-01T00:33:22;4.20;86.00
31967;DHT22;18496;52.042;6.812;2023-03-01T00:35:26;4.20;86.10
31967;DHT22;18496;52.042;6.812;2023-03-01T00:37:30;4.20;86.40
31967;DHT22;18496;52.042;6.812;2023-03-01T00:39:33;4.10;86.40
31967;DHT22;18496;52.042;6.812;2023-03-01T00:41:37;4.20;86.10
31967;DHT22;18496;52.042;6.812;2023-03-01T00:43:40;4.10;86.40
31967;DHT22;18496;52.042;6.812;2023-03-01T00:45:45;4.10;86.70
31967;DHT22;18496;52.042;6.812;2023-03-01T00:47:49;4.00;86.70
31967;DHT22;18496;52.042;6.812;2023-03-01T00:49:53;4.10;86.90
31967;DHT22;18496;52.042;6.812;2023-03-01T00:51:56;4.00;86.90
31967;DHT22;18496;52.042;6.812;2023-03-01T00:54:01;4.10;86.80
31967;DHT22;18496;52.042;6.812;2023-03-01T00:56:05;4.00;86.70
31967;DHT22;18496;52.042;6.812;2023-03-01T00:58:09;4.10;87.00
31967;DHT22;18496;52.042;6.812;2023-03-01T01:00:12;4.00;87.30
31967;DHT22;18496;52.042;6.812;2023-03-01T01:02:16;3.90;87.60
31967;DHT22;18496;52.042;6.812;2023-03-01T01:04:19;3.90;87.60
31967;DHT22;18496;52.042;6.812;2023-03-01T01:06:24;3.90;87.60
31967;DHT22;18496;52.042;6.812;2023-03-01T01:08:28;3.90;87.40
31967;DHT22;18496;52.042;6.812;2023-03-01T01:10:33;3.90;87.60
31967;DHT22;18496;52.042;6.812;2023-03-01T01:12:36;3.90;87.70
31967;DHT22;18496;52.042;6.812;2023-03-01T01:14:40;3.90;87.90
31967;DHT22;18496;52.042;6.812;2023-03-01T01:16:44;3.80;87.90
31967;DHT22;18496;52.042;6.812;2023-03-01T01:18:47;3.70;88.10
31967;DHT22;18496;52.042;6.812;2023-03-01T01:20:51;3.70;88.10
31967;DHT22;18496;52.042;6.812;2023-03-01T01:22:55;3.70;88.40
31967;DHT22;18496;52.042;6.812;2023-03-01T01:24:58;3.70;88.70
31967;DHT22;18496;52.042;6.812;2023-03-01T01:27:02;3.70;88.40
31967;DHT22;18496;52.042;6.812;2023-03-01T01:29:06;3.70;88.50
31967;DHT22;18496;52.042;6.812;2023-03-01T01:31:09;3.70;88.60
31967;DHT22;18496;52.042;6.812;2023-03-01T01:33:13;3.70;88.70
31967;DHT22;18496;52.042;6.812;2023-03-01T01:35:16;3.70;88.90
31967;DHT22;18496;52.042;6.812;2023-03-01T01:37:21;3.70;88.90
31967;DHT22;18496;52.042;6.812;2023-03-01T01:39:24;3.60;88.80
31967;DHT22;18496;52.042;6.812;2023-03-01T01:41:28;3.70;88.90
31967;DHT22;18496;52.042;6.812;2023-03-01T01:43:33;3.70;88.90
31967;DHT22;18496;52.042;6.812;2023-03-01T01:45:37;3.60;88.70
31967;DHT22;18496;52.042;6.812;2023-03-01T01:47:40;3.60;88.70
31967;DHT22;18496;52.042;6.812;2023-03-01T01:49:48;3.60;88.80
31967;DHT22;18496;52.042;6.812;2023-03-01T01:51:59;3.60;89.10
31967;DHT22;18496;52.042;6.812;2023-03-01T01:54:05;3.50;89.10
31967;DHT22;18496;52.042;6.812;2023-03-01T01:56:10;3.50;88.90
31967;DHT22;18496;52.042;6.812;2023-03-01T01:58:17;3.50;88.80
31967;DHT22;18496;52.042;6.812;2023-03-01T02:00:23;3.50;89.10
31967;DHT22;18496;52.042;6.812;2023-03-01T02:02:27;3.40;89.20
31967;DHT22;18496;52.042;6.812;2023-03-01T02:04:31;3.40;89.20
31967;DHT22;18496;52.042;6.812;2023-03-01T02:06:43;3.40;89.40
31967;DHT22;18496;52.042;6.812;2023-03-01T02:08:48;3.40;89.50
31967;DHT22;18496;52.042;6.812;2023-03-01T02:10:53;3.30;89.70
31967;DHT22;18496;52.042;6.812;2023-03-01T02:12:57;3.30;89.90
31967;DHT22;18496;52.042;6.812;2023-03-01T02:15:01;3.30;90.00
31967;DHT22;18496;52.042;6.812;2023-03-01T02:17:05;3.30;90.00
31967;DHT22;18496;52.042;6.812;2023-03-01T02:19:08;3.30;90.00
31967;DHT22;18496;52.042;6.812;2023-03-01T02:23:23;3.20;90.10
31967;DHT22;18496;52.042;6.812;2023-03-01T02:28:08;3.20;90.10
31967;DHT22;18496;52.042;6.812;2023-03-01T02:30:13;3.20;90.10
31967;DHT22;18496;52.042;6.812;2023-03-01T02:32:17;3.20;90.10
31967;DHT22;18496;52.042;6.812;2023-03-01T02:34:28;3.10;90.20
31967;DHT22;18496;52.042;6.812;2023-03-01T02:38:46;3.10;90.30
31967;DHT22;18496;52.042;6.812;2023-03-01T02:40:51;3.00;90.40
31967;DHT22;18496;52.042;6.812;2023-03-01T02:42:56;3.00;90.40
31967;DHT22;18496;52.042;6.812;2023-03-01T02:45:00;3.00;90.40
31967;DHT22;18496;52.042;6.812;2023-03-01T02:47:04;3.00;90.40
31967;DHT22;18496;52.042;6.812;2023-03-01T02:49:18;3.00;90.40
31967;DHT22;18496;52.042;6.812;2023-03-01T02:51:42;3.00;90.50
31967;DHT22;18496;52.042;6.812;2023-03-01T02:56:08;3.00;90.50
31967;DHT22;18496;52.042;6.812;2023-03-01T02:58:16;3.00;90.60
31967;DHT22;18496;52.042;6.812;2023-03-01T03:00:21;3.00;90.70
31967;DHT22;18496;52.042;6.812;2023-03-01T03:02:27;3.00;90.70
31967;DHT22;18496;52.042;6.812;2023-03-01T03:04:54;3.00;90.70
31967;DHT22;18496;52.042;6.812;2023-03-01T03:06:58;3.00;90.70
31967;DHT22;18496;52.042;6.812;2023-03-01T03:09:03;3.00;90.70
31967;DHT22;18496;52.042;6.812;2023-03-01T03:11:07;2.90;90.70
31967;DHT22;18496;52.042;6.812;2023-03-01T03:13:12;2.90;90.80
31967;DHT22;18496;52.042;6.812;2023-03-01T03:15:17;2.80;91.10
31967;DHT22;18496;52.042;6.812;2023-03-01T03:17:21;2.80;90.90
31967;DHT22;18496;52.042;6.812;2023-03-01T03:19:24;2.80;90.90
31967;DHT22;18496;52.042;6.812;2023-03-01T03:21:28;2.80;91.10
31967;DHT22;18496;52.042;6.812;2023-03-01T03:23:31;2.70;91.10
31967;DHT22;18496;52.042;6.812;2023-03-01T03:25:35;2.70;91.10
31967;DHT22;18496;52.042;6.812;2023-03-01T03:27:41;2.70;91.20
31967;DHT22;18496;52.042;6.812;2023-03-01T03:29:46;2.70;91.30
31967;DHT22;18496;52.042;6.812;2023-03-01T03:31:49;2.70;91.20
31967;DHT22;18496;52.042;6.812;2023-03-01T03:33:53;2.70;91.20
31967;DHT22;18496;52.042;6.812;2023-03-01T03:35:56;2.60;91.40
31967;DHT22;18496;52.042;6.812;2023-03-01T03:38:03;2.60;91.40
31967;DHT22;18496;52.042;6.812;2023-03-01T03:40:09;2.60;91.40
31967;DHT22;18496;52.042;6.812;2023-03-01T03:42:18;2.60;91.50
31967;DHT22;18496;52.042;6.812;2023-03-01T03:44:22;2.50;91.50
31967;DHT22;18496;52.042;6.812;2023-03-01T03:46:25;2.50;91.70
31967;DHT22;18496;52.042;6.812;2023-03-01T03:48:29;2.50;92.00
31967;DHT22;18496;52.042;6.812;2023-03-01T03:50:32;2.50;91.80
31967;DHT22;18496;52.042;6.812;2023-03-01T03:52:36;2.50;91.80
31967;DHT22;18496;52.042;6.812;2023-03-01T03:54:40;2.40;91.70
31967;DHT22;18496;52.042;6.812;2023-03-01T03:56:44;2.50;91.70
31967;DHT22;18496;52.042;6.812;2023-03-01T03:58:47;2.40;91.80
31967;DHT22;18496;52.042;6.812;2023-03-01T04:00:52;2.40;91.80
31967;DHT22;18496;52.042;6.812;2023-03-01T04:02:56;2.40;91.80
31967;DHT22;18496;52.042;6.812;2023-03-01T04:04:59;2.40;91.80
31967;DHT22;18496;52.042;6.812;2023-03-01T04:07:03;2.40;91.80
31967;DHT22;18496;52.042;6.812;2023-03-01T04:09:06;2.40;91.80
31967;DHT22;18496;52.042;6.812;2023-03-01T04:11:11;2.40;91.80
31967;DHT22;18496;52.042;6.812;2023-03-01T04:13:29;2.40;91.80
31967;DHT22;18496;52.042;6.812;2023-03-01T04:15:33;2.40;91.80
31967;DHT22;18496;52.042;6.812;2023-03-01T04:17:37;2.30;91.80
31967;DHT22;18496;52.042;6.812;2023-03-01T04:19:42;2.30;91.80
31967;DHT22;18496;52.042;6.812;2023-03-01T04:21:47;2.30;91.90
31967;DHT22;18496;52.042;6.812;2023-03-01T04:23:50;2.30;91.90
31967;DHT22;18496;52.042;6.812;2023-03-01T04:25:56;2.30;92.00
31967;DHT22;18496;52.042;6.812;2023-03-01T04:28:00;2.30;92.00
31967;DHT22;18496;52.042;6.812;2023-03-01T04:30:03;2.30;91.90
31967;DHT22;18496;52.042;6.812;2023-03-01T04:32:07;2.30;92.00
31967;DHT22;18496;52.042;6.812;2023-03-01T04:34:11;2.20;92.00
31967;DHT22;18496;52.042;6.812;2023-03-01T04:36:17;2.20;92.10
31967;DHT22;18496;52.042;6.812;2023-03-01T04:38:21;2.20;92.20
31967;DHT22;18496;52.042;6.812;2023-03-01T04:40:25;2.20;92.20
31967;DHT22;18496;52.042;6.812;2023-03-01T04:42:28;2.20;92.20
31967;DHT22;18496;52.042;6.812;2023-03-01T04:44:32;2.20;92.20
31967;DHT22;18496;52.042;6.812;2023-03-01T04:46:35;2.20;92.50
31967;DHT22;18496;52.042;6.812;2023-03-01T04:48:39;2.20;92.40
31967;DHT22;18496;52.042;6.812;2023-03-01T04:50:43;2.10;92.50
31967;DHT22;18496;52.042;6.812;2023-03-01T04:52:47;2.10;92.70
31967;DHT22;18496;52.042;6.812;2023-03-01T04:54:50;2.10;92.60
31967;DHT22;18496;52.042;6.812;2023-03-01T04:56:54;2.10;92.60
31967;DHT22;18496;52.042;6.812;2023-03-01T04:58:58;2.10;92.60
31967;DHT22;18496;52.042;6.812;2023-03-01T05:01:01;2.00;92.70
31967;DHT22;18496;52.042;6.812;2023-03-01T05:03:18;2.00;92.80
31967;DHT22;18496;52.042;6.812;2023-03-01T05:07:29;2.00;92.90
31967;DHT22;18496;52.042;6.812;2023-03-01T05:09:32;2.00;92.80
31967;DHT22;18496;52.042;6.812;2023-03-01T05:11:36;2.00;92.80
31967;DHT22;18496;52.042;6.812;2023-03-01T05:13:40;2.00;92.90
31967;DHT22;18496;52.042;6.812;2023-03-01T05:15:44;1.90;93.00
31967;DHT22;18496;52.042;6.812;2023-03-01T05:17:48;1.90;93.00
31967;DHT22;18496;52.042;6.812;2023-03-01T05:19:52;1.90;93.00
31967;DHT22;18496;52.042;6.812;2023-03-01T05:21:55;1.90;93.00
31967;DHT22;18496;52.042;6.812;2023-03-01T05:24:05;1.80;93.10
31967;DHT22;18496;52.042;6.812;2023-03-01T05:26:09;1.80;93.10
31967;DHT22;18496;52.042;6.812;2023-03-01T05:28:13;1.80;93.10
31967;DHT22;18496;52.042;6.812;2023-03-01T05:30:17;1.80;93.10
31967;DHT22;18496;52.042;6.812;2023-03-01T05:32:21;1.80;93.20
31967;DHT22;18496;52.042;6.812;2023-03-01T05:34:25;1.80;93.20
31967;DHT22;18496;52.042;6.812;2023-03-01T05:36:28;1.80;93.20
31967;DHT22;18496;52.042;6.812;2023-03-01T05:38:32;1.80;93.20
31967;DHT22;18496;52.042;6.812;2023-03-01T05:40:36;1.80;93.60
31967;DHT22;18496;52.042;6.812;2023-03-01T05:42:39;1.80;93.30
31967;DHT22;18496;52.042;6.812;2023-03-01T05:44:43;1.70;93.20
31967;DHT22;18496;52.042;6.812;2023-03-01T05:46:47;1.70;93.20
31967;DHT22;18496;52.042;6.812;2023-03-01T05:48:50;1.70;93.30
31967;DHT22;18496;52.042;6.812;2023-03-01T05:50:54;1.70;93.40
31967;DHT22;18496;52.042;6.812;2023-03-01T05:52:58;1.70;93.50
31967;DHT22;18496;52.042;6.812;2023-03-01T05:55:02;1.60;93.50
31967;DHT22;18496;52.042;6.812;2023-03-01T05:57:06;1.60;93.50
31967;DHT22;18496;52.042;6.812;2023-03-01T05:59:09;1.60;93.50
31967;DHT22;18496;52.042;6.812;2023-03-01T06:01:13;1.60;93.60
31967;DHT22;18496;52.042;6.812;2023-03-01T06:03:17;1.60;93.70
31967;DHT22;18496;52.042;6.812;2023-03-01T06:05:21;1.60;93.70
31967;DHT22;18496;52.042;6.812;2023-03-01T06:07:25;1.60;93.80
31967;DHT22;18496;52.042;6.812;2023-03-01T06:09:29;1.60;93.90
31967;DHT22;18496;52.042;6.812;2023-03-01T06:11:35;1.60;93.90
31967;DHT22;18496;52.042;6.812;2023-03-01T06:13:40;1.60;94.10
31967;DHT22;18496;52.042;6.812;2023-03-01T06:15:44;1.60;94.20
31967;DHT22;18496;52.042;6.812;2023-03-01T06:17:48;1.60;94.20
31967;DHT22;18496;52.042;6.812;2023-03-01T06:19:51;1.60;94.40
31967;DHT22;18496;52.042;6.812;2023-03-01T06:21:55;1.60;94.50
31967;DHT22;18496;52.042;6.812;2023-03-01T06:23:59;1.60;94.50
31967;DHT22;18496;52.042;6.812;2023-03-01T06:26:06;1.60;94.50
31967;DHT22;18496;52.042;6.812;2023-03-01T06:28:09;1.70;94.40
31967;DHT22;18496;52.042;6.812;2023-03-01T06:30:14;1.70;94.60
31967;DHT22;18496;52.042;6.812;2023-03-01T06:32:18;1.70;94.60
31967;DHT22;18496;52.042;6.812;2023-03-01T06:34:21;1.70;94.60
31967;DHT22;18496;52.042;6.812;2023-03-01T06:36:25;1.70;94.70
31967;DHT22;18496;52.042;6.812;2023-03-01T06:38:28;1.70;94.80
31967;DHT22;18496;52.042;6.812;2023-03-01T06:40:32;1.70;95.00
31967;DHT22;18496;52.042;6.812;2023-03-01T06:42:39;1.70;95.10
31967;DHT22;18496;52.042;6.812;2023-03-01T06:44:43;1.70;95.10
31967;DHT22;18496;52.042;6.812;2023-03-01T06:46:47;1.70;94.90
31967;DHT22;18496;52.042;6.812;2023-03-01T06:48:50;1.70;95.10
31967;DHT22;18496;52.042;6.812;2023-03-01T06:50:54;1.70;95.10
31967;DHT22;18496;52.042;6.812;2023-03-01T06:53:01;1.70;95.20
31967;DHT22;18496;52.042;6.812;2023-03-01T06:55:05;1.80;95.40
31967;DHT22;18496;52.042;6.812;2023-03-01T06:57:08;1.80;95.40
31967;DHT22;18496;52.042;6.812;2023-03-01T06:59:12;1.80;95.60
31967;DHT22;18496;52.042;6.812;2023-03-01T07:01:16;1.80;95.70
31967;DHT22;18496;52.042;6.812;2023-03-01T07:03:19;1.80;95.80
31967;DHT22;18496;52.042;6.812;2023-03-01T07:05:23;1.90;95.80
31967;DHT22;18496;52.042;6.812;2023-03-01T07:07:26;1.90;95.80
31967;DHT22;18496;52.042;6.812;2023-03-01T07:09:30;2.00;95.90
31967;DHT22;18496;52.042;6.812;2023-03-01T07:11:34;2.00;95.90
31967;DHT22;18496;52.042;6.812;2023-03-01T07:13:37;2.10;96.00
31967;DHT22;18496;52.042;6.812;2023-03-01T07:15:41;2.10;96.00
31967;DHT22;18496;52.042;6.812;2023-03-01T07:17:44;2.10;96.10
31967;DHT22;18496;52.042;6.812;2023-03-01T07:19:50;2.20;96.10
31967;DHT22;18496;52.042;6.812;2023-03-01T07:21:54;2.20;96.20
31967;DHT22;18496;52.042;6.812;2023-03-01T07:23:59;2.20;96.30
31967;DHT22;18496;52.042;6.812;2023-03-01T07:26:02;2.30;96.30
31967;DHT22;18496;52.042;6.812;2023-03-01T07:28:06;2.30;96.40
31967;DHT22;18496;52.042;6.812;2023-03-01T07:30:09;2.40;96.40
31967;DHT22;18496;52.042;6.812;2023-03-01T07:32:13;2.40;96.40
31967;DHT22;18496;52.042;6.812;2023-03-01T07:34:17;2.50;96.60
31967;DHT22;18496;52.042;6.812;2023-03-01T07:36:20;2.60;96.70
31967;DHT22;18496;52.042;6.812;2023-03-01T07:38:24;2.60;96.70
31967;DHT22;18496;52.042;6.812;2023-03-01T07:40:28;2.70;96.70
31967;DHT22;18496;52.042;6.812;2023-03-01T07:42:31;2.60;96.90
31967;DHT22;18496;52.042;6.812;2023-03-01T07:44:35;2.70;97.00
31967;DHT22;18496;52.042;6.812;2023-03-01T07:46:38;2.70;97.00
31967;DHT22;18496;52.042;6.812;2023-03-01T07:48:42;2.90;96.90
31967;DHT22;18496;52.042;6.812;2023-03-01T07:50:45;2.90;96.80
31967;DHT22;18496;52.042;6.812;2023-03-01T07:52:49;3.00;96.90
31967;DHT22;18496;52.042;6.812;2023-03-01T07:54:53;3.00;96.80
31967;DHT22;18496;52.042;6.812;2023-03-01T07:56:56;3.10;96.80
31967;DHT22;18496;52.042;6.812;2023-03-01T07:59:00;3.20;96.70
31967;DHT22;18496;52.042;6.812;2023-03-01T08:01:04;3.20;96.70
31967;DHT22;18496;52.042;6.812;2023-03-01T08:03:08;3.30;96.80
31967;DHT22;18496;52.042;6.812;2023-03-01T08:05:12;3.30;96.80
31967;DHT22;18496;52.042;6.812;2023-03-01T08:07:15;3.40;96.70
31967;DHT22;18496;52.042;6.812;2023-03-01T08:09:19;3.50;96.80
31967;DHT22;18496;52.042;6.812;2023-03-01T08:11:22;3.60;96.60
31967;DHT22;18496;52.042;6.812;2023-03-01T08:13:26;3.60;96.70
31967;DHT22;18496;52.042;6.812;2023-03-01T08:15:30;3.70;96.80
31967;DHT22;18496;52.042;6.812;2023-03-01T08:17:33;3.70;96.80
31967;DHT22;18496;52.042;6.812;2023-03-01T08:19:37;3.80;96.70
31967;DHT22;18496;52.042;6.812;2023-03-01T08:21:41;3.80;96.70
31967;DHT22;18496;52.042;6.812;2023-03-01T08:23:45;3.90;96.70
31967;DHT22;18496;52.042;6.812;2023-03-01T08:25:48;3.90;96.50
31967;DHT22;18496;52.042;6.812;2023-03-01T08:27:52;3.90;96.50
31967;DHT22;18496;52.042;6.812;2023-03-01T08:29:55;4.00;96.50
31967;DHT22;18496;52.042;6.812;2023-03-01T08:31:59;4.00;96.40
31967;DHT22;18496;52.042;6.812;2023-03-01T08:34:04;4.00;96.50
31967;DHT22;18496;52.042;6.812;2023-03-01T08:36:08;4.10;96.50
31967;DHT22;18496;52.042;6.812;2023-03-01T08:38:11;4.10;96.20
31967;DHT22;18496;52.042;6.812;2023-03-01T08:40:15;4.10;96.10
31967;DHT22;18496;52.042;6.812;2023-03-01T08:42:19;4.20;96.20
31967;DHT22;18496;52.042;6.812;2023-03-01T08:44:22;4.20;96.40
31967;DHT22;18496;52.042;6.812;2023-03-01T08:46:26;4.30;96.30
31967;DHT22;18496;52.042;6.812;2023-03-01T08:48:30;4.30;96.00
31967;DHT22;18496;52.042;6.812;2023-03-01T08:50:34;4.40;96.20
31967;DHT22;18496;52.042;6.812;2023-03-01T08:52:37;4.40;95.60
31967;DHT22;18496;52.042;6.812;2023-03-01T08:54:41;4.40;95.50
31967;DHT22;18496;52.042;6.812;2023-03-01T08:56:44;4.40;95.50
31967;DHT22;18496;52.042;6.812;2023-03-01T08:58:48;4.40;95.30
31967;DHT22;18496;52.042;6.812;2023-03-01T09:00:52;4.40;95.30
31967;DHT22;18496;52.042;6.812;2023-03-01T09:02:55;4.40;95.50
31967;DHT22;18496;52.042;6.812;2023-03-01T09:04:59;4.50;95.50
31967;DHT22;18496;52.042;6.812;2023-03-01T09:07:02;4.50;95.40
31967;DHT22;18496;52.042;6.812;2023-03-01T09:09:06;4.60;95.00
31967;DHT22;18496;52.042;6.812;2023-03-01T09:11:16;4.60;95.20
31967;DHT22;18496;52.042;6.812;2023-03-01T09:13:20;4.70;95.10
31967;DHT22;18496;52.042;6.812;2023-03-01T09:15:24;4.70;95.10
31967;DHT22;18496;52.042;6.812;2023-03-01T09:17:27;4.70;95.20
31967;DHT22;18496;52.042;6.812;2023-03-01T09:19:31;4.80;95.10
31967;DHT22;18496;52.042;6.812;2023-03-01T09:21:34;4.90;95.10
31967;DHT22;18496;52.042;6.812;2023-03-01T09:23:42;4.90;94.80
31967;DHT22;18496;52.042;6.812;2023-03-01T09:25:46;4.90;94.90
31967;DHT22;18496;52.042;6.812;2023-03-01T09:27:50;5.00;94.60
31967;DHT22;18496;52.042;6.812;2023-03-01T09:29:54;5.00;94.60
31967;DHT22;18496;52.042;6.812;2023-03-01T09:31:59;5.10;94.70
31967;DHT22;18496;52.042;6.812;2023-03-01T09:34:03;5.10;94.50
31967;DHT22;18496;52.042;6.812;2023-03-01T09:36:09;5.20;94.30
31967;DHT22;18496;52.042;6.812;2023-03-01T09:38:13;5.20;93.90
31967;DHT22;18496;52.042;6.812;2023-03-01T09:40:27;5.30;93.60
31967;DHT22;18496;52.042;6.812;2023-03-01T09:42:32;5.30;93.80
31967;DHT22;18496;52.042;6.812;2023-03-01T09:44:41;5.40;93.70
31967;DHT22;18496;52.042;6.812;2023-03-01T09:46:46;5.40;93.70
31967;DHT22;18496;52.042;6.812;2023-03-01T09:48:50;5.50;93.50
31967;DHT22;18496;52.042;6.812;2023-03-01T09:50:55;5.60;93.50
31967;DHT22;18496;52.042;6.812;2023-03-01T09:53:04;5.60;92.80
31967;DHT22;18496;52.042;6.812;2023-03-01T09:55:13;5.70;92.80
31967;DHT22;18496;52.042;6.812;2023-03-01T09:57:18;5.70;92.70
31967;DHT22;18496;52.042;6.812;2023-03-01T09:59:27;5.70;93.00
31967;DHT22;18496;52.042;6.812;2023-03-01T10:03:43;5.80;92.40
31967;DHT22;18496;52.042;6.812;2023-03-01T10:05:48;5.90;91.70
31967;DHT22;18496;52.042;6.812;2023-03-01T10:10:04;6.00;91.20
31967;DHT22;18496;52.042;6.812;2023-03-01T10:12:13;6.10;91.20
31967;DHT22;18496;52.042;6.812;2023-03-01T10:18:40;6.30;91.10
31967;DHT22;18496;52.042;6.812;2023-03-01T10:21:01;6.30;90.90
31967;DHT22;18496;52.042;6.812;2023-03-01T10:23:04;6.30;90.70
31967;DHT22;18496;52.042;6.812;2023-03-01T10:25:08;6.40;90.80
31967;DHT22;18496;52.042;6.812;2023-03-01T10:29:19;6.50;90.30
31967;DHT22;18496;52.042;6.812;2023-03-01T10:31:30;6.50;90.70
31967;DHT22;18496;52.042;6.812;2023-03-01T10:33:40;6.50;90.10
31967;DHT22;18496;52.042;6.812;2023-03-01T10:35:44;6.60;90.40
31967;DHT22;18496;52.042;6.812;2023-03-01T10:37:57;6.60;90.50
31967;DHT22;18496;52.042;6.812;2023-03-01T10:40:04;6.70;89.80
31967;DHT22;18496;52.042;6.812;2023-03-01T10:42:21;6.80;89.80
31967;DHT22;18496;52.042;6.812;2023-03-01T10:46:39;6.90;87.80
31967;DHT22;18496;52.042;6.812;2023-03-01T10:48:43;7.00;86.60
31967;DHT22;18496;52.042;6.812;2023-03-01T10:50:48;7.00;86.30
31967;DHT22;18496;52.042;6.812;2023-03-01T10:52:55;7.10;86.30
31967;DHT22;18496;52.042;6.812;2023-03-01T10:55:42;7.10;88.70
31967;DHT22;18496;52.042;6.812;2023-03-01T10:57:36;7.20;86.70
31967;DHT22;18496;52.042;6.812;2023-03-01T10:59:40;7.20;85.90
31967;DHT22;18496;52.042;6.812;2023-03-01T11:01:44;7.30;86.40
31967;DHT22;18496;52.042;6.812;2023-03-01T11:04:02;7.40;85.70
31967;DHT22;18496;52.042;6.812;2023-03-01T11:08:26;7.50;84.80
31967;DHT22;18496;52.042;6.812;2023-03-01T11:10:33;7.60;86.50
31967;DHT22;18496;52.042;6.812;2023-03-01T11:12:37;7.60;86.60
31967;DHT22;18496;52.042;6.812;2023-03-01T11:14:51;7.70;85.40
31967;DHT22;18496;52.042;6.812;2023-03-01T11:17:11;7.70;84.70
31967;DHT22;18496;52.042;6.812;2023-03-01T11:19:17;7.70;84.30
31967;DHT22;18496;52.042;6.812;2023-03-01T11:21:21;7.80;83.90
31967;DHT22;18496;52.042;6.812;2023-03-01T11:23:25;7.90;83.60
31967;DHT22;18496;52.042;6.812;2023-03-01T11:25:35;7.90;84.30
31967;DHT22;18496;52.042;6.812;2023-03-01T11:27:41;8.00;83.70
31967;DHT22;18496;52.042;6.812;2023-03-01T11:29:48;8.00;83.80
31967;DHT22;18496;52.042;6.812;2023-03-01T11:31:55;8.10;83.10
31967;DHT22;18496;52.042;6.812;2023-03-01T11:34:01;8.20;83.20
31967;DHT22;18496;52.042;6.812;2023-03-01T11:38:29;8.30;80.30
31967;DHT22;18496;52.042;6.812;2023-03-01T11:43:05;8.30;81.60
31967;DHT22;18496;52.042;6.812;2023-03-01T11:45:12;8.30;81.60
31967;DHT22;18496;52.042;6.812;2023-03-01T11:49:33;8.40;82.00
31967;DHT22;18496;52.042;6.812;2023-03-01T11:51:45;8.50;80.10
31967;DHT22;18496;52.042;6.812;2023-03-01T11:56:03;8.70;79.30
31967;DHT22;18496;52.042;6.812;2023-03-01T12:05:02;8.90;77.90
31967;DHT22;18496;52.042;6.812;2023-03-01T12:11:20;9.20;78.10
31967;DHT22;18496;52.042;6.812;2023-03-01T12:13:35;9.30;78.00
31967;DHT22;18496;52.042;6.812;2023-03-01T12:22:21;9.50;77.70
31967;DHT22;18496;52.042;6.812;2023-03-01T12:35:20;9.80;76.60
31967;DHT22;18496;52.042;6.812;2023-03-01T12:44:21;10.20;73.20
31967;DHT22;18496;52.042;6.812;2023-03-01T12:48:39;10.40;73.30
31967;DHT22;18496;52.042;6.812;2023-03-01T12:50:47;10.50;75.10
31967;DHT22;18496;52.042;6.812;2023-03-01T12:52:53;10.50;73.50
31967;DHT22;18496;52.042;6.812;2023-03-01T12:54:58;10.60;70.80
31967;DHT22;18496;52.042;6.812;2023-03-01T13:14:36;11.10;68.50
31967;DHT22;18496;52.042;6.812;2023-03-01T13:16:41;11.10;66.20
31967;DHT22;18496;52.042;6.812;2023-03-01T13:19:05;11.10;67.40
31967;DHT22;18496;52.042;6.812;2023-03-01T13:21:09;11.20;67.40
31967;DHT22;18496;52.042;6.812;2023-03-01T13:25:22;11.30;70.50
31967;DHT22;18496;52.042;6.812;2023-03-01T13:27:26;11.30;67.50
31967;DHT22;18496;52.042;6.812;2023-03-01T13:33:52;11.50;66.50
31967;DHT22;18496;52.042;6.812;2023-03-01T13:35:57;11.50;65.20
31967;DHT22;18496;52.042;6.812;2023-03-01T13:38:36;11.60;64.30
31967;DHT22;18496;52.042;6.812;2023-03-01T13:42:35;11.60;64.80
31967;DHT22;18496;52.042;6.812;2023-03-01T13:44:40;11.60;64.10
31967;DHT22;18496;52.042;6.812;2023-03-01T13:46:46;11.70;66.50
31967;DHT22;18496;52.042;6.812;2023-03-01T13:48:51;11.80;67.40
31967;DHT22;18496;52.042;6.812;2023-03-01T13:50:58;11.80;64.30
31967;DHT22;18496;52.042;6.812;2023-03-01T13:53:04;11.80;65.50
31967;DHT22;18496;52.042;6.812;2023-03-01T13:57:34;11.80;65.40
31967;DHT22;18496;52.042;6.812;2023-03-01T13:59:42;11.90;64.90
31967;DHT22;18496;52.042;6.812;2023-03-01T14:01:53;12.00;62.60
31967;DHT22;18496;52.042;6.812;2023-03-01T14:03:58;12.00;63.20
31967;DHT22;18496;52.042;6.812;2023-03-01T14:08:14;12.10;64.90
31967;DHT22;18496;52.042;6.812;2023-03-01T14:10:21;12.10;64.70
31967;DHT22;18496;52.042;6.812;2023-03-01T14:19:04;12.40;61.80
31967;DHT22;18496;52.042;6.812;2023-03-01T14:21:13;12.40;61.80
31967;DHT22;18496;52.042;6.812;2023-03-01T14:23:18;12.50;60.50
31967;DHT22;18496;52.042;6.812;2023-03-01T14:25:32;12.50;61.40
31967;DHT22;18496;52.042;6.812;2023-03-01T14:27:37;12.50;60.10
31967;DHT22;18496;52.042;6.812;2023-03-01T14:29:42;12.60;61.80
31967;DHT22;18496;52.042;6.812;2023-03-01T14:31:46;12.60;62.50
31967;DHT22;18496;52.042;6.812;2023-03-01T14:33:56;12.70;62.00
31967;DHT22;18496;52.042;6.812;2023-03-01T14:36:04;12.80;59.20
31967;DHT22;18496;52.042;6.812;2023-03-01T14:38:19;12.80;59.90
31967;DHT22;18496;52.042;6.812;2023-03-01T14:40:31;12.80;59.20
31967;DHT22;18496;52.042;6.812;2023-03-01T14:42:35;12.90;58.30
31967;DHT22;18496;52.042;6.812;2023-03-01T14:44:40;13.00;58.60
31967;DHT22;18496;52.042;6.812;2023-03-01T14:46:44;13.00;56.90
31967;DHT22;18496;52.042;6.812;2023-03-01T14:48:52;13.00;57.90
31967;DHT22;18496;52.042;6.812;2023-03-01T14:50:57;13.00;57.10
31967;DHT22;18496;52.042;6.812;2023-03-01T14:53:01;13.10;56.40
31967;DHT22;18496;52.042;6.812;2023-03-01T14:55:07;13.10;57.70
31967;DHT22;18496;52.042;6.812;2023-03-01T14:57:18;13.20;56.70
31967;DHT22;18496;52.042;6.812;2023-03-01T14:59:25;13.20;56.30
31967;DHT22;18496;52.042;6.812;2023-03-01T15:01:29;13.20;58.00
31967;DHT22;18496;52.042;6.812;2023-03-01T15:03:34;13.20;59.00
31967;DHT22;18496;52.042;6.812;2023-03-01T15:05:41;13.30;56.80
31967;DHT22;18496;52.042;6.812;2023-03-01T15:07:45;13.30;57.90
31967;DHT22;18496;52.042;6.812;2023-03-01T15:09:52;13.40;56.10
31967;DHT22;18496;52.042;6.812;2023-03-01T15:11:58;13.40;55.50
31967;DHT22;18496;52.042;6.812;2023-03-01T15:14:05;13.40;55.50